Time;durP1;ratioP1;P1;durP2;ratioP2;P2;SDS_P1;SDS_P2;PMS_P1;PMS_P2;Temp;Humidity;BMP_temperature;BMP_pressure;BME280_temperature;BME280_humidity;BME280_pressure;Samples;Min_cycle;Max_cycle;Signal;HPM_P1;HPM_P2
2023/03/23 00:02:11;;;;;;;1999.90;999.90;;;14.00;93.70;;;;;;5036118;28;20592;-76
2023/03/23 00:04:36;;;;;;;1999.90;999.90;;;14.10;93.50;;;;;;5036063;28;20065;-78
2023/03/23 00:07:02;;;;;;;1999.90;999.90;;;14.10;93.40;;;;;;5036122;28;20030;-78
2023/03/23 00:09:29;;;;;;;1999.90;999.90;;;14.10;93.50;;;;;;5036358;28;20030;-77
2023/03/23 00:11:56;;;;;;;1999.90;999.90;;;14.00;93.30;;;;;;5036036;28;20084;-77
2023/03/23 00:14:23;;;;;;;1999.90;999.90;;;14.00;93.70;;;;;;5036046;28;20106;-77
2023/03/23 00:16:50;;;;;;;1999.90;999.90;;;14.00;93.40;;;;;;5036253;28;20147;-77
2023/03/23 00:19:19;;;;;;;1999.90;999.90;;;14.00;93.40;;;;;;5035357;28;20476;-77
2023/03/23 00:21:44;;;;;;;1999.90;999.90;;;14.10;92.70;;;;;;5034553;28;20041;-77
2023/03/23 00:24:11;;;;;;;1999.90;999.90;;;14.10;93.00;;;;;;5036053;28;20038;-77
2023/03/23 00:26:43;;;;;;;1999.90;999.90;;;14.00;93.20;;;;;;5036198;28;20038;-77
2023/03/23 00:29:16;;;;;;;1999.90;999.90;;;14.10;92.80;;;;;;5034853;28;20025;-77
2023/03/23 00:31:46;;;;;;;1999.90;999.90;;;14.10;93.00;;;;;;5034094;28;20072;-77
2023/03/23 00:34:19;;;;;;;1999.90;999.90;;;14.00;93.00;;;;;;5035937;28;20029;-77
2023/03/23 00:36:50;;;;;;;1999.90;999.90;;;14.00;93.20;;;;;;5036023;28;20486;-77
2023/03/23 00:39:17;;;;;;;1999.90;999.90;;;14.00;93.20;;;;;;5035921;28;20138;-77
2023/03/23 00:41:43;;;;;;;1999.90;999.90;;;13.90;93.50;;;;;;5035905;28;20503;-77
2023/03/23 00:44:09;;;;;;;1999.90;999.90;;;13.90;93.50;;;;;;5035581;28;20073;-77
2023/03/23 00:46:44;;;;;;;1999.90;999.90;;;13.90;93.50;;;;;;5034457;28;20069;-77
2023/03/23 00:49:13;;;;;;;1999.90;999.90;;;13.80;93.70;;;;;;5037020;28;20509;-78
2023/03/23 00:51:40;;;;;;;1999.90;999.90;;;13.80;93.80;;;;;;5034052;28;20046;-77
2023/03/23 00:54:07;;;;;;;1999.90;999.90;;;13.80;94.00;;;;;;5035490;28;20034;-78
2023/03/23 00:56:33;;;;;;;1999.90;999.90;;;13.80;94.30;;;;;;5035560;28;20065;-77
2023/03/23 00:58:58;;;;;;;1999.90;999.90;;;13.80;94.00;;;;;;5035788;28;20034;-77
2023/03/23 01:01:24;;;;;;;1999.90;999.90;;;13.90;93.70;;;;;;5035437;28;20034;-78
2023/03/23 01:03:49;;;;;;;1999.90;999.90;;;14.00;93.90;;;;;;5033656;28;20034;-77
2023/03/23 01:06:15;;;;;;;1999.90;999.90;;;14.00;93.90;;;;;;5035399;28;20484;-77
2023/03/23 01:08:44;;;;;;;1999.90;999.90;;;14.10;94.10;;;;;;5036512;28;20041;-77
2023/03/23 01:11:15;;;;;;;1999.90;999.90;;;14.20;93.60;;;;;;5036219;28;20045;-77
2023/03/23 01:13:44;;;;;;;1999.90;999.90;;;14.30;93.70;;;;;;5035973;28;20056;-82
2023/03/23 01:16:11;;;;;;;1999.90;999.90;;;14.20;93.70;;;;;;5035128;28;20026;-78
2023/03/23 01:18:38;;;;;;;1999.90;999.90;;;14.10;93.70;;;;;;5033954;28;20507;-78
2023/03/23 01:21:08;;;;;;;1999.90;999.90;;;14.20;93.50;;;;;;5035335;28;20037;-77
2023/03/23 01:23:34;;;;;;;1999.90;999.90;;;14.20;93.60;;;;;;5034844;28;20030;-77
2023/03/23 01:26:08;;;;;;;1999.90;999.90;;;14.20;93.50;;;;;;5034405;28;20495;-77
2023/03/23 01:28:35;;;;;;;1999.90;999.90;;;14.10;93.80;;;;;;5035327;28;20030;-77
2023/03/23 01:31:06;;;;;;;1999.90;999.90;;;14.20;93.80;;;;;;5035171;28;20037;-77
2023/03/23 01:33:32;;;;;;;1999.90;999.90;;;14.20;93.70;;;;;;5034971;28;20038;-76
2023/03/23 01:36:04;;;;;;;1999.90;999.90;;;14.10;94.10;;;;;;5034769;28;20038;-79
2023/03/23 01:38:30;;;;;;;1999.90;999.90;;;14.10;93.90;;;;;;5034497;28;20126;-78
2023/03/23 01:40:56;;;;;;;1999.90;999.90;;;14.00;94.10;;;;;;5033907;28;20038;-75
2023/03/23 01:43:22;;;;;;;1999.90;999.90;;;14.00;94.20;;;;;;5034701;28;20546;-75
2023/03/23 01:45:47;;;;;;;1999.90;999.90;;;14.00;94.40;;;;;;5034063;28;20399;-75
2023/03/23 01:48:20;;;;;;;1999.90;999.90;;;14.00;94.20;;;;;;5034863;28;20026;-75
2023/03/23 01:50:59;;;;;;;1999.90;999.90;;;14.00;94.30;;;;;;5034992;28;20037;-75
2023/03/23 01:53:31;;;;;;;1999.90;999.90;;;14.00;94.30;;;;;;5034131;28;20042;-75
2023/03/23 01:55:58;;;;;;;1999.90;999.90;;;14.10;94.30;;;;;;5033918;28;20508;-75
2023/03/23 01:58:27;;;;;;;1999.90;999.90;;;14.10;94.30;;;;;;5034571;28;20037;-75
2023/03/23 02:00:55;;;;;;;1999.90;999.90;;;14.10;94.20;;;;;;5018772;28;20038;-75
2023/03/23 02:03:23;;;;;;;1999.90;999.90;;;14.10;94.40;;;;;;5034086;28;20034;-75
2023/03/23 02:05:49;;;;;;;1999.90;999.90;;;14.10;94.20;;;;;;5034316;28;20044;-75
2023/03/23 02:08:16;;;;;;;1999.90;999.90;;;14.00;94.30;;;;;;5034153;28;20030;-75
2023/03/23 02:10:41;;;;;;;1999.90;999.90;;;14.10;94.10;;;;;;5033860;28;20034;-75
2023/03/23 02:13:08;;;;;;;1999.90;999.90;;;14.10;94.30;;;;;;5032918;28;20034;-76
2023/03/23 02:15:50;;;;;;;1999.90;999.90;;;14.10;94.10;;;;;;5034004;28;20504;-76
2023/03/23 02:18:43;;;;;;;1999.90;999.90;;;14.10;94.40;;;;;;5034183;28;20494;-75
2023/03/23 02:21:31;;;;;;;1999.90;999.90;;;14.00;94.40;;;;;;5034234;28;20033;-75
2023/03/23 02:24:25;;;;;;;1999.90;999.90;;;14.00;94.60;;;;;;5033776;28;20038;-75
2023/03/23 02:27:16;;;;;;;1999.90;999.90;;;14.00;94.50;;;;;;5034268;28;20492;-75
2023/03/23 02:30:04;;;;;;;1999.90;999.90;;;13.90;94.40;;;;;;5034248;28;20068;-75
2023/03/23 02:33:18;;;;;;;1999.90;999.90;;;13.90;94.70;;;;;;5031817;28;20475;-75
2023/03/23 02:35:56;;;;;;;1999.90;999.90;;;13.80;94.70;;;;;;5032105;28;20041;-75
2023/03/23 02:38:31;;;;;;;1999.90;999.90;;;13.90;94.70;;;;;;5033894;28;20820;-75
2023/03/23 02:41:00;;;;;;;1999.90;999.90;;;13.90;95.10;;;;;;5034023;28;20116;-75
2023/03/23 02:43:33;;;;;;;1999.90;999.90;;;13.90;94.60;;;;;;5035346;28;20108;-75
2023/03/23 02:46:00;;;;;;;1999.90;999.90;;;13.70;94.80;;;;;;5037205;28;20463;-76
2023/03/23 02:48:29;;;;;;;1999.90;999.90;;;13.70;95.00;;;;;;5037403;28;20421;-76
2023/03/23 02:50:56;;;;;;;1999.90;999.90;;;13.60;94.70;;;;;;5037174;28;20539;-76
2023/03/23 02:53:24;;;;;;;1999.90;999.90;;;13.70;94.80;;;;;;5037111;28;20034;-76
2023/03/23 02:55:52;;;;;;;1999.90;999.90;;;13.80;94.70;;;;;;5030086;28;20042;-75
2023/03/23 02:58:19;;;;;;;1999.90;999.90;;;13.80;94.60;;;;;;5037106;28;20030;-75
2023/03/23 03:00:49;;;;;;;1999.90;999.90;;;13.80;94.60;;;;;;5036878;28;20049;-75
2023/03/23 03:03:17;;;;;;;1999.90;999.90;;;14.00;94.40;;;;;;5036696;28;20030;-75
2023/03/23 03:05:46;;;;;;;1999.90;999.90;;;13.90;94.10;;;;;;5036434;28;20547;-75
2023/03/23 03:08:52;;;;;;;1999.90;999.90;;;14.00;94.10;;;;;;5036986;28;20036;-75
2023/03/23 03:11:22;;;;;;;1999.90;999.90;;;14.00;94.10;;;;;;5036453;28;20077;-76
2023/03/23 03:14:10;;;;;;;1999.90;999.90;;;14.00;94.00;;;;;;5036978;28;20081;-75
2023/03/23 03:16:55;;;;;;;1999.90;999.90;;;14.00;93.90;;;;;;5037310;28;20049;-75
2023/03/23 03:19:31;;;;;;;1999.90;999.90;;;14.00;93.90;;;;;;5035829;28;20060;-75
2023/03/23 03:21:58;;;;;;;1999.90;999.90;;;14.00;93.80;;;;;;5036922;28;20040;-75
2023/03/23 03:24:27;;;;;;;1999.90;999.90;;;14.00;93.60;;;;;;5035296;28;20037;-75
2023/03/23 03:26:57;;;;;;;1999.90;999.90;;;14.00;93.50;;;;;;5036609;28;20046;-75
2023/03/23 03:29:27;;;;;;;1999.90;999.90;;;14.00;93.30;;;;;;5037065;28;20061;-75
2023/03/23 03:31:55;;;;;;;1999.90;999.90;;;14.00;93.40;;;;;;5036059;28;20475;-75
2023/03/23 03:34:23;;;;;;;1999.90;999.90;;;14.00;93.10;;;;;;5036763;28;20096;-75
2023/03/23 03:36:51;;;;;;;1999.90;999.90;;;14.10;93.10;;;;;;5036821;28;20095;-75
2023/03/23 03:39:19;;;;;;;1999.90;999.90;;;14.10;93.10;;;;;;5036856;28;20516;-75
2023/03/23 03:41:45;;;;;;;1999.90;999.90;;;14.10;93.20;;;;;;5036352;28;20084;-75
2023/03/23 03:44:11;;;;;;;1999.90;999.90;;;14.10;93.20;;;;;;5036625;28;20113;-75
2023/03/23 03:46:37;;;;;;;1999.90;999.90;;;14.10;93.40;;;;;;5036422;28;20042;-75
2023/03/23 03:49:05;;;;;;;1999.90;999.90;;;14.10;93.20;;;;;;5036623;28;20538;-75
2023/03/23 03:51:31;;;;;;;1999.90;999.90;;;14.00;93.40;;;;;;5036384;28;20801;-75
2023/03/23 03:53:57;;;;;;;1999.90;999.90;;;13.90;93.60;;;;;;5035125;28;20524;-75
2023/03/23 03:56:24;;;;;;;1999.90;999.90;;;14.00;93.70;;;;;;5036083;28;20695;-76
2023/03/23 03:58:50;;;;;;;1999.90;999.90;;;13.90;93.70;;;;;;5036558;28;20034;-76
2023/03/23 04:01:17;;;;;;;1999.90;999.90;;;13.80;94.00;;;;;;5036394;28;20407;-75
2023/03/23 04:03:43;;;;;;;1999.90;999.90;;;13.80;94.00;;;;;;5036465;28;20041;-75
2023/03/23 04:06:10;;;;;;;1999.90;999.90;;;13.90;94.00;;;;;;5035607;28;20065;-75
2023/03/23 04:08:41;;;;;;;1999.90;999.90;;;13.90;94.10;;;;;;5034983;28;20105;-75
2023/03/23 04:11:07;;;;;;;1999.90;999.90;;;13.90;93.90;;;;;;5036329;28;20034;-75
2023/03/23 04:13:32;;;;;;;1999.90;999.90;;;14.00;93.70;;;;;;5034461;28;20519;-75
2023/03/23 04:15:58;;;;;;;1999.90;999.90;;;14.10;93.70;;;;;;5035484;28;20042;-75
2023/03/23 04:18:24;;;;;;;1999.90;999.90;;;14.00;94.20;;;;;;5036284;28;20101;-75
2023/03/23 04:20:50;;;;;;;1999.90;999.90;;;14.00;94.10;;;;;;5035985;28;20555;-75
2023/03/23 04:23:21;;;;;;;1999.90;999.90;;;13.90;93.90;;;;;;5035853;28;20033;-75
2023/03/23 04:25:48;;;;;;;1999.90;999.90;;;14.00;93.80;;;;;;5035512;28;20044;-75
2023/03/23 04:28:16;;;;;;;1999.90;999.90;;;14.00;93.70;;;;;;5035788;28;20034;-75
2023/03/23 04:30:42;;;;;;;1999.90;999.90;;;14.00;93.70;;;;;;5035637;28;20109;-75
2023/03/23 04:33:14;;;;;;;1999.90;999.90;;;14.00;94.00;;;;;;5035682;28;20038;-75
2023/03/23 04:35:40;;;;;;;1999.90;999.90;;;14.00;93.80;;;;;;5035134;28;20045;-75
2023/03/23 04:38:07;;;;;;;1999.90;999.90;;;14.00;93.90;;;;;;5036018;28;20404;-75
2023/03/23 04:40:35;;;;;;;1999.90;999.90;;;14.00;93.80;;;;;;5035668;28;20894;-76
2023/03/23 04:43:05;;;;;;;1999.90;999.90;;;13.90;93.80;;;;;;5035286;28;20120;-75
2023/03/23 04:45:31;;;;;;;1999.90;999.90;;;13.90;93.90;;;;;;5035105;28;20065;-75
2023/03/23 04:48:01;;;;;;;1999.90;999.90;;;13.80;94.30;;;;;;5035364;28;20566;-75
2023/03/23 04:50:30;;;;;;;1999.90;999.90;;;13.80;94.30;;;;;;5035443;28;20113;-75
2023/03/23 04:52:57;;;;;;;1999.90;999.90;;;13.70;94.40;;;;;;5035391;28;20025;-75
2023/03/23 04:55:24;;;;;;;1999.90;999.90;;;13.80;94.30;;;;;;5035110;28;20065;-76
2023/03/23 04:57:50;;;;;;;1999.90;999.90;;;13.80;94.10;;;;;;5035312;28;20046;-75
2023/03/23 05:00:16;;;;;;;1999.90;999.90;;;13.80;94.30;;;;;;5035826;28;20109;-75
2023/03/23 05:02:43;;;;;;;1999.90;999.90;;;13.80;94.40;;;;;;5035395;28;20081;-75
2023/03/23 05:05:11;;;;;;;1999.90;999.90;;;13.70;94.60;;;;;;5034472;28;20397;-75
2023/03/23 05:07:40;;;;;;;1999.90;999.90;;;13.60;94.70;;;;;;5035330;28;20538;-76
2023/03/23 05:10:08;;;;;;;1999.90;999.90;;;13.60;94.70;;;;;;5035092;28;20084;-75
2023/03/23 05:12:34;;;;;;;1999.90;999.90;;;13.60;94.70;;;;;;5033494;28;20577;-75
2023/03/23 05:14:59;;;;;;;1999.90;999.90;;;13.60;95.20;;;;;;5034726;28;20038;-76
2023/03/23 05:17:26;;;;;;;1999.90;999.90;;;13.70;95.10;;;;;;5035140;28;20033;-75
2023/03/23 05:19:52;;;;;;;1999.90;999.90;;;13.80;95.00;;;;;;5035284;28;20064;-75
2023/03/23 05:22:20;;;;;;;1999.90;999.90;;;13.70;94.70;;;;;;5034878;28;20033;-76
2023/03/23 05:24:46;;;;;;;1999.90;999.90;;;13.80;94.70;;;;;;5034814;28;20453;-75
2023/03/23 05:27:12;;;;;;;1999.90;999.90;;;13.80;94.60;;;;;;5035249;28;20388;-75
2023/03/23 05:29:40;;;;;;;1999.90;999.90;;;13.80;95.00;;;;;;5035391;28;20032;-76
2023/03/23 05:32:07;;;;;;;1999.90;999.90;;;13.90;94.50;;;;;;5033104;28;20034;-76
2023/03/23 05:34:36;;;;;;;1999.90;999.90;;;14.00;94.60;;;;;;5034662;28;20037;-75
2023/03/23 05:37:02;;;;;;;1999.90;999.90;;;14.00;94.90;;;;;;5034982;28;20038;-75
2023/03/23 05:39:29;;;;;;;1999.90;999.90;;;14.10;94.60;;;;;;5034894;28;20030;-73
2023/03/23 05:41:55;;;;;;;1999.90;999.90;;;14.00;94.60;;;;;;5034427;28;20042;-73
2023/03/23 05:44:21;;;;;;;1999.90;999.90;;;14.00;94.50;;;;;;5034686;28;20127;-74
2023/03/23 05:46:47;;;;;;;1999.90;999.90;;;14.00;94.60;;;;;;5034486;28;20030;-74
2023/03/23 05:49:15;;;;;;;1999.90;999.90;;;14.00;95.20;;;;;;5033123;28;20037;-73
2023/03/23 05:51:45;;;;;;;1999.90;999.90;;;13.90;94.80;;;;;;5034039;28;20034;-77
2023/03/23 05:54:11;;;;;;;1999.90;999.90;;;13.90;94.90;;;;;;5034414;28;20088;-73
2023/03/23 05:56:38;;;;;;;1999.90;999.90;;;13.90;95.30;;;;;;5034394;28;20066;-73
2023/03/23 05:59:03;;;;;;;1999.90;999.90;;;13.90;95.50;;;;;;5034275;28;20133;-73
2023/03/23 06:01:29;;;;;;;1999.90;999.90;;;14.00;94.90;;;;;;5034673;28;20041;-72
2023/03/23 06:03:58;;;;;;;1999.90;999.90;;;14.00;94.80;;;;;;5034123;28;20049;-73
2023/03/23 06:06:28;;;;;;;1999.90;999.90;;;14.00;95.30;;;;;;5034299;28;20037;-73
2023/03/23 06:08:53;;;;;;;1999.90;999.90;;;13.90;95.30;;;;;;5032568;28;20034;-73
2023/03/23 06:11:19;;;;;;;1999.90;999.90;;;13.90;95.30;;;;;;5034035;28;20462;-76
2023/03/23 06:13:45;;;;;;;1999.90;999.90;;;13.90;95.50;;;;;;5033940;28;20030;-76
2023/03/23 06:16:10;;;;;;;1999.90;999.90;;;14.00;95.10;;;;;;5033746;28;20069;-75
2023/03/23 06:18:36;;;;;;;1999.90;999.90;;;14.00;95.20;;;;;;5036419;28;20041;-75
2023/03/23 06:21:03;;;;;;;1999.90;999.90;;;14.00;95.80;;;;;;5037653;28;20484;-76
2023/03/23 06:23:29;;;;;;;1999.90;999.90;;;14.00;95.50;;;;;;5037465;28;20076;-77
2023/03/23 06:26:01;;;;;;;1999.90;999.90;;;14.10;95.30;;;;;;5037188;28;20042;-76
2023/03/23 06:28:27;;;;;;;1999.90;999.90;;;14.10;95.60;;;;;;5037822;28;20034;-75
2023/03/23 06:30:52;;;;;;;1999.90;999.90;;;14.10;95.60;;;;;;5037428;28;20045;-75
2023/03/23 06:33:18;;;;;;;1999.90;999.90;;;14.20;95.50;;;;;;5037123;28;20113;-76
2023/03/23 06:35:44;;;;;;;1999.90;999.90;;;14.20;95.90;;;;;;5037037;28;20038;-77
2023/03/23 06:38:10;;;;;;;1999.90;999.90;;;14.10;96.40;;;;;;5037707;28;20034;-76
2023/03/23 06:40:36;;;;;;;1999.90;999.90;;;14.10;96.80;;;;;;5037582;28;20077;-76
2023/03/23 06:43:03;;;;;;;1999.90;999.90;;;14.10;97.10;;;;;;5037515;28;20038;-76
2023/03/23 06:45:29;;;;;;;1999.90;999.90;;;14.00;97.70;;;;;;5040465;28;20061;-76
2023/03/23 06:47:54;;;;;;;1999.90;999.90;;;14.10;97.30;;;;;;5038547;28;20559;-76
2023/03/23 06:50:20;;;;;;;1999.90;999.90;;;14.00;97.10;;;;;;5037538;28;20377;-76
2023/03/23 06:52:50;;;;;;;1999.90;999.90;;;14.20;97.10;;;;;;5036877;28;20045;-76
2023/03/23 06:55:17;;;;;;;1999.90;999.90;;;14.30;97.00;;;;;;5035246;28;20041;-75
2023/03/23 06:57:44;;;;;;;1999.90;999.90;;;14.30;96.90;;;;;;5036910;28;20037;-76
2023/03/23 07:00:13;;;;;;;1999.90;999.90;;;14.40;96.60;;;;;;5041501;28;20056;-76
2023/03/23 07:02:40;;;;;;;1999.90;999.90;;;14.40;97.10;;;;;;5037017;28;20117;-75
2023/03/23 07:05:07;;;;;;;1999.90;999.90;;;14.50;97.10;;;;;;5036672;28;20034;-75
2023/03/23 07:07:32;;;;;;;1999.90;999.90;;;14.40;96.60;;;;;;5035090;28;20157;-76
2023/03/23 07:09:58;;;;;;;1999.90;999.90;;;14.40;97.00;;;;;;5036710;28;20596;-76
2023/03/23 07:12:24;;;;;;;1999.90;999.90;;;14.30;96.90;;;;;;5035335;28;20033;-76
2023/03/23 07:14:50;;;;;;;1999.90;999.90;;;14.30;97.20;;;;;;5036642;28;20109;-75
2023/03/23 07:17:15;;;;;;;1999.90;999.90;;;14.30;97.40;;;;;;5034785;28;20549;-75
2023/03/23 07:19:41;;;;;;;1999.90;999.90;;;14.30;96.80;;;;;;5036711;28;20034;-76
2023/03/23 07:22:07;;;;;;;1999.90;999.90;;;14.30;97.10;;;;;;5036688;28;20045;-75
2023/03/23 07:24:34;;;;;;;1999.90;999.90;;;14.20;96.90;;;;;;5036425;28;20033;-75
2023/03/23 07:27:00;;;;;;;1999.90;999.90;;;14.20;97.10;;;;;;5035705;28;20025;-75
2023/03/23 07:29:26;;;;;;;1999.90;999.90;;;14.10;97.70;;;;;;5035770;28;20037;-75
2023/03/23 07:31:52;;;;;;;1999.90;999.90;;;14.10;97.30;;;;;;5035567;28;20538;-75
2023/03/23 07:34:18;;;;;;;1999.90;999.90;;;14.10;97.60;;;;;;5050600;22;20133;-74
2023/03/23 07:36:45;;;;;;;1999.90;999.90;;;14.10;97.40;;;;;;5035920;28;20539;-74
2023/03/23 07:39:11;;;;;;;1999.90;999.90;;;14.10;97.40;;;;;;5036461;28;20026;-74
2023/03/23 07:41:38;;;;;;;1999.90;999.90;;;14.20;97.30;;;;;;5036795;28;20475;-75
2023/03/23 07:44:04;;;;;;;1999.90;999.90;;;14.40;97.50;;;;;;5035783;28;20030;-75
2023/03/23 07:46:30;;;;;;;1999.90;999.90;;;14.40;97.10;;;;;;5032906;28;20029;-75
2023/03/23 07:48:56;;;;;;;1999.90;999.90;;;14.50;97.20;;;;;;5035288;28;20538;-74
2023/03/23 07:51:22;;;;;;;1999.90;999.90;;;14.60;97.10;;;;;;5016292;28;20558;-74
2023/03/23 07:53:49;;;;;;;1999.90;999.90;;;14.80;96.80;;;;;;5019820;28;20041;-75
2023/03/23 07:56:18;;;;;;;1999.90;999.90;;;15.20;96.50;;;;;;5014295;28;20085;-74
2023/03/23 07:58:44;;;;;;;1999.90;999.90;;;15.50;96.20;;;;;;5015928;28;20109;-79
2023/03/23 08:01:10;;;;;;;1999.90;999.90;;;15.70;95.90;;;;;;5016755;28;20041;-74
2023/03/23 08:03:36;;;;;;;1999.90;999.90;;;15.80;96.10;;;;;;5030747;28;20030;-74
2023/03/23 08:06:02;;;;;;;1999.90;999.90;;;16.00;96.10;;;;;;5032441;28;20034;-75
2023/03/23 08:08:28;;;;;;;1999.90;999.90;;;16.10;95.60;;;;;;5024805;28;20484;-74
2023/03/23 08:10:53;;;;;;;1999.90;999.90;;;16.10;95.40;;;;;;5033445;28;20038;-73
2023/03/23 08:13:19;;;;;;;1999.90;999.90;;;16.10;95.30;;;;;;5036081;28;20076;-74
2023/03/23 08:15:45;;;;;;;1999.90;999.90;;;15.90;95.40;;;;;;5020046;28;20085;-77
2023/03/23 08:18:11;;;;;;;1999.90;999.90;;;15.90;96.00;;;;;;5018193;28;20046;-73
2023/03/23 08:20:37;;;;;;;1999.90;999.90;;;16.00;95.90;;;;;;5021284;28;20033;-73
2023/03/23 08:23:03;;;;;;;1999.90;999.90;;;15.90;95.80;;;;;;5021447;28;20089;-73
2023/03/23 08:25:34;;;;;;;1999.90;999.90;;;15.90;96.10;;;;;;5015973;28;20034;-73
2023/03/23 08:28:03;;;;;;;1999.90;999.90;;;15.90;95.80;;;;;;5016427;28;20034;-73
2023/03/23 08:30:29;;;;;;;1999.90;999.90;;;15.90;96.00;;;;;;5029722;28;20044;-73
2023/03/23 08:33:00;;;;;;;1999.90;999.90;;;15.90;96.50;;;;;;5034437;28;20049;-72
2023/03/23 08:35:26;;;;;;;1999.90;999.90;;;15.80;96.30;;;;;;5016676;28;20034;-73
2023/03/23 08:37:54;;;;;;;1999.90;999.90;;;15.80;96.80;;;;;;5024006;28;20096;-72
2023/03/23 08:40:21;;;;;;;1999.90;999.90;;;15.60;96.80;;;;;;5017828;28;20030;-72
2023/03/23 08:42:48;;;;;;;1999.90;999.90;;;15.60;97.10;;;;;;5016492;28;20049;-73
2023/03/23 08:45:20;;;;;;;1999.90;999.90;;;15.40;97.80;;;;;;5027912;28;20491;-73
2023/03/23 08:47:51;;;;;;;1999.90;999.90;;;15.20;98.10;;;;;;5024336;28;20042;-72
2023/03/23 08:50:24;;;;;;;1999.90;999.90;;;15.30;98.30;;;;;;5035571;28;20037;-73
2023/03/23 08:52:50;;;;;;;1999.90;999.90;;;15.40;97.80;;;;;;5025167;28;20117;-72
2023/03/23 08:55:17;;;;;;;1999.90;999.90;;;15.50;97.90;;;;;;5015668;28;20031;-73
2023/03/23 08:57:43;;;;;;;1999.90;999.90;;;15.80;98.30;;;;;;5015998;28;20092;-73
2023/03/23 09:00:19;;;;;;;1999.90;999.90;;;15.90;97.30;;;;;;5030284;28;20041;-73
2023/03/23 09:02:51;;;;;;;1999.90;999.90;;;16.10;97.90;;;;;;5023045;28;20031;-73
2023/03/23 09:05:19;;;;;;;1999.90;999.90;;;16.10;97.60;;;;;;5032479;28;20026;-73
2023/03/23 09:07:48;;;;;;;1999.90;999.90;;;16.00;97.90;;;;;;5034834;28;20121;-74
2023/03/23 09:10:14;;;;;;;1999.90;999.90;;;16.00;98.20;;;;;;5029167;28;20037;-74
2023/03/23 09:12:41;;;;;;;1999.90;999.90;;;16.10;97.80;;;;;;5015389;28;20527;-80
2023/03/23 09:15:08;;;;;;;1999.90;999.90;;;16.10;98.10;;;;;;5015313;28;20026;-75
2023/03/23 09:17:39;;;;;;;1999.90;999.90;;;16.20;97.50;;;;;;5014013;28;20531;-74
2023/03/23 09:20:13;;;;;;;1999.90;999.90;;;16.20;97.20;;;;;;5015619;28;20120;-74
2023/03/23 09:22:44;;;;;;;1999.90;999.90;;;16.10;97.00;;;;;;5015374;28;20058;-73
2023/03/23 09:25:18;;;;;;;1999.90;999.90;;;16.10;97.00;;;;;;5015357;28;20027;-73
2023/03/23 09:27:46;;;;;;;1999.90;999.90;;;16.10;96.80;;;;;;5015243;28;20415;-74
2023/03/23 09:30:14;;;;;;;1999.90;999.90;;;16.20;96.90;;;;;;5015210;28;20435;-72
2023/03/23 09:32:42;;;;;;;1999.90;999.90;;;16.00;96.90;;;;;;5014530;28;20093;-72
2023/03/23 09:35:11;;;;;;;1999.90;999.90;;;15.90;97.50;;;;;;5015069;28;20744;-73
2023/03/23 09:37:37;;;;;;;1999.90;999.90;;;15.90;97.40;;;;;;5013197;28;20038;-72
2023/03/23 09:40:05;;;;;;;1999.90;999.90;;;16.00;97.80;;;;;;5020072;28;20038;-73
2023/03/23 09:43:10;;;;;;;1999.90;999.90;;;15.90;97.40;;;;;;5034514;28;20030;-72
2023/03/23 09:45:49;;;;;;;1999.90;999.90;;;15.90;97.60;;;;;;5023875;28;20172;-73
2023/03/23 09:48:40;;;;;;;1999.90;999.90;;;15.90;98.30;;;;;;5031120;28;20045;-73
2023/03/23 09:51:29;;;;;;;1999.90;999.90;;;16.00;97.60;;;;;;5025536;28;20042;-74
2023/03/23 09:54:04;;;;;;;1999.90;999.90;;;16.20;97.50;;;;;;5035069;28;20045;-72
2023/03/23 09:56:32;;;;;;;1999.90;999.90;;;16.40;97.70;;;;;;5033648;28;20538;-72
2023/03/23 09:59:12;;;;;;;1999.90;999.90;;;16.20;97.40;;;;;;5020462;28;20046;-73
2023/03/23 10:02:02;;;;;;;1999.90;999.90;;;16.10;98.40;;;;;;5024590;28;20124;-73
2023/03/23 10:04:50;;;;;;;1999.90;999.90;;;16.30;98.30;;;;;;5005286;28;20046;-73
2023/03/23 10:07:21;;;;;;;1999.90;999.90;;;16.30;98.30;;;;;;5017563;28;20061;-74
2023/03/23 10:09:51;;;;;;;1999.90;999.90;;;16.30;98.80;;;;;;5033458;28;20030;-73
2023/03/23 10:12:20;;;;;;;1999.90;999.90;;;16.40;98.70;;;;;;5035533;28;20041;-73
2023/03/23 10:14:46;;;;;;;1999.90;999.90;;;16.30;98.90;;;;;;5028475;28;20405;-73
2023/03/23 10:17:26;;;;;;;1999.90;999.90;;;16.10;99.50;;;;;;5013074;28;20556;-73
2023/03/23 10:20:19;;;;;;;1999.90;999.90;;;16.00;99.80;;;;;;5014054;28;20145;-72
2023/03/23 10:23:05;;;;;;;1999.90;999.90;;;15.80;99.90;;;;;;5014623;28;20046;-71
2023/03/23 10:25:35;;;;;;;1999.90;999.90;;;15.90;99.90;;;;;;5012606;28;20110;-73
2023/03/23 10:28:19;;;;;;;1999.90;999.90;;;15.70;99.90;;;;;;5016944;28;20034;-73
2023/03/23 10:30:56;;;;;;;1999.90;999.90;;;15.40;99.90;;;;;;5014530;28;20038;-73
2023/03/23 10:33:44;;;;;;;1999.90;999.90;;;15.40;99.90;;;;;;5029818;28;20088;-73
2023/03/23 10:36:24;;;;;;;1999.90;999.90;;;15.50;99.90;;;;;;5025442;28;20081;-73
2023/03/23 10:39:04;;;;;;;1999.90;999.90;;;15.80;99.90;;;;;;5024995;28;20085;-73
2023/03/23 10:41:30;;;;;;;1999.90;999.90;;;16.30;99.90;;;;;;5015188;28;20065;-73
2023/03/23 10:43:56;;;;;;;1999.90;999.90;;;16.70;99.90;;;;;;5022527;28;20064;-73
2023/03/23 10:47:00;;;;;;;1999.90;999.90;;;17.10;99.50;;;;;;5033852;28;20442;-73
2023/03/23 10:49:39;;;;;;;1999.90;999.90;;;17.20;99.90;;;;;;5014129;28;20451;-73
2023/03/23 10:52:34;;;;;;;1999.90;999.90;;;17.50;99.20;;;;;;5019719;28;20042;-73
2023/03/23 10:55:09;;;;;;;1999.90;999.90;;;17.50;98.90;;;;;;5031192;28;20038;-73
2023/03/23 10:57:37;;;;;;;1999.90;999.90;;;17.20;99.20;;;;;;5033166;28;20124;-73
2023/03/23 11:00:17;;;;;;;1999.90;999.90;;;16.90;99.30;;;;;;5032383;28;20037;-73
2023/03/23 11:02:57;;;;;;;1999.90;999.90;;;16.70;99.90;;;;;;5033626;28;20077;-73
2023/03/23 11:05:27;;;;;;;1999.90;999.90;;;16.50;99.90;;;;;;5036976;28;20034;-73
2023/03/23 11:07:55;;;;;;;1999.90;999.90;;;16.30;99.90;;;;;;5035426;28;20037;-73
2023/03/23 11:10:28;;;;;;;1999.90;999.90;;;16.00;99.90;;;;;;5035661;28;20032;-72
2023/03/23 11:12:57;;;;;;;1999.90;999.90;;;15.90;99.90;;;;;;5035008;28;20500;-73
2023/03/23 11:15:34;;;;;;;1999.90;999.90;;;15.80;99.90;;;;;;5035261;28;20065;-73
2023/03/23 11:18:05;;;;;;;1999.90;999.90;;;15.90;99.90;;;;;;5032913;28;20038;-73
2023/03/23 11:20:37;;;;;;;1999.90;999.90;;;16.30;99.90;;;;;;5035189;28;20041;-72
2023/03/23 11:23:23;;;;;;;1999.90;999.90;;;16.10;99.90;;;;;;5021817;28;20039;-73
2023/03/23 11:25:54;;;;;;;1999.90;999.90;;;16.00;99.90;;;;;;5016995;28;20452;-73
2023/03/23 11:28:20;;;;;;;1999.90;999.90;;;16.10;99.90;;;;;;5027594;28;20495;-73
2023/03/23 11:30:46;;;;;;;1999.90;999.90;;;16.10;99.90;;;;;;5031008;28;20034;-73
2023/03/23 11:33:15;;;;;;;1999.90;999.90;;;16.00;99.90;;;;;;5016202;28;20038;-73
2023/03/23 11:35:45;;;;;;;1999.90;999.90;;;15.80;99.90;;;;;;5016616;28;20101;-73
2023/03/23 11:38:18;;;;;;;1999.90;999.90;;;15.60;99.90;;;;;;5035383;28;20037;-73
2023/03/23 11:40:48;;;;;;;1999.90;999.90;;;15.50;99.90;;;;;;5036809;28;20030;-73
2023/03/23 11:43:19;;;;;;;1999.90;999.90;;;15.40;99.90;;;;;;5034822;28;20034;-73
2023/03/23 11:46:10;;;;;;;1999.90;999.90;;;15.30;99.90;;;;;;5035933;28;20081;-73
2023/03/23 11:48:57;;;;;;;1999.90;999.90;;;15.10;99.90;;;;;;5024045;28;20499;-73
2023/03/23 11:51:46;;;;;;;1999.90;999.90;;;15.10;99.90;;;;;;5016867;28;20038;-72
2023/03/23 11:54:33;;;;;;;1999.90;999.90;;;15.30;99.90;;;;;;5036151;28;20041;-72
2023/03/23 11:56:59;;;;;;;1999.90;999.90;;;15.30;99.90;;;;;;5036228;28;20046;-72
2023/03/23 11:59:36;;;;;;;1999.90;999.90;;;15.50;99.90;;;;;;5017222;28;20041;-72
2023/03/23 12:02:35;;;;;;;1999.90;999.90;;;15.60;99.90;;;;;;5025071;28;20037;-73
2023/03/23 12:05:28;;;;;;;1999.90;999.90;;;15.70;99.90;;;;;;5036037;28;20489;-74
2023/03/23 12:08:06;;;;;;;1999.90;999.90;;;15.90;99.90;;;;;;5022489;28;20042;-73
2023/03/23 12:10:48;;;;;;;1999.90;999.90;;;16.20;99.90;;;;;;5036405;28;20029;-73
2023/03/23 12:13:29;;;;;;;1999.90;999.90;;;16.30;99.30;;;;;;5036021;28;20088;-73
2023/03/23 12:16:23;;;;;;;1999.90;999.90;;;16.30;99.40;;;;;;5028729;28;20038;-73